Gran Canaria Airport

GCLP | LPA

Gran Canaria Island , Canary-Islands , Spain

Friday, June 5th, 2020 | 00:18

Weather

GCLP 042300Z 02005KT 360V060 9999 FEW035 23/19 Q1015 NOSIG

Charts

No Charts Available

Gates

117 Available

Runways

2 Available

Active ATC

Events -Coming Soon-

1 Events Coming Up Soon

Next event:
GCLP Flyout